sensor_id;sensor_type;location;lat;lon;timestamp;pressure;altitude;pressure_sealevel;temperature;humidity
49055;BME280;35405;52.344;14.530;2023-07-02T06:33:08;99849.03;;;20.80;56.36
49055;BME280;35405;52.344;14.530;2023-07-02T06:35:33;99854.91;;;20.97;56.22
49055;BME280;35405;52.344;14.530;2023-07-02T06:37:58;99861.59;;;21.37;55.76
49055;BME280;35405;52.344;14.530;2023-07-02T06:40:24;99870.09;;;21.65;53.74
49055;BME280;35405;52.344;14.530;2023-07-02T06:42:49;99866.75;;;21.85;52.86
49055;BME280;35405;52.344;14.530;2023-07-02T06:45:14;99872.53;;;21.79;51.41
49055;BME280;35405;52.344;14.530;2023-07-02T06:47:39;99874.69;;;21.63;51.11
49055;BME280;35405;52.344;14.530;2023-07-02T06:50:05;99883.88;;;21.59;50.59
49055;BME280;35405;52.344;14.530;2023-07-02T06:52:30;99867.75;;;21.49;49.83
49055;BME280;35405;52.344;14.530;2023-07-02T06:54:55;99865.59;;;21.43;49.89
49055;BME280;35405;52.344;14.530;2023-07-02T06:57:20;99865.72;;;21.53;50.06
49055;BME280;35405;52.344;14.530;2023-07-02T06:59:45;99859.09;;;21.70;49.94
49055;BME280;35405;52.344;14.530;2023-07-02T07:02:11;99871.56;;;21.58;49.91
49055;BME280;35405;52.344;14.530;2023-07-02T07:04:36;99875.44;;;21.65;50.29
49055;BME280;35405;52.344;14.530;2023-07-02T07:07:01;99877.88;;;22.02;49.62
49055;BME280;35405;52.344;14.530;2023-07-02T07:09:27;99870.09;;;22.32;48.93
49055;BME280;35405;52.344;14.530;2023-07-02T07:11:53;99879.44;;;22.38;48.16
49055;BME280;35405;52.344;14.530;2023-07-02T07:14:18;99869.25;;;22.32;47.67
49055;BME280;35405;52.344;14.530;2023-07-02T07:16:43;99881.88;;;22.07;48.22
49055;BME280;35405;52.344;14.530;2023-07-02T07:19:08;99872.28;;;21.82;48.81
49055;BME280;35405;52.344;14.530;2023-07-02T07:21:34;99871.41;;;21.48;49.48
49055;BME280;35405;52.344;14.530;2023-07-02T07:23:59;99883.25;;;21.20;50.27
49055;BME280;35405;52.344;14.530;2023-07-02T07:26:24;99893.78;;;20.87;50.65
49055;BME280;35405;52.344;14.530;2023-07-02T07:28:49;99883.06;;;20.99;50.69
49055;BME280;35405;52.344;14.530;2023-07-02T07:31:14;99888.66;;;21.31;50.67
49055;BME280;35405;52.344;14.530;2023-07-02T07:33:40;99880.22;;;21.49;50.51
49055;BME280;35405;52.344;14.530;2023-07-02T07:36:05;99872.66;;;21.66;50.36
49055;BME280;35405;52.344;14.530;2023-07-02T07:38:30;99877.25;;;21.87;49.86
49055;BME280;35405;52.344;14.530;2023-07-02T07:40:55;99861.41;;;21.85;49.51
49055;BME280;35405;52.344;14.530;2023-07-02T07:43:20;99854.25;;;21.97;49.37
49055;BME280;35405;52.344;14.530;2023-07-02T07:45:46;99862.63;;;22.15;49.33
49055;BME280;35405;52.344;14.530;2023-07-02T07:48:11;99865.97;;;22.39;48.95
49055;BME280;35405;52.344;14.530;2023-07-02T07:50:36;99870.72;;;22.36;47.15
49055;BME280;35405;52.344;14.530;2023-07-02T07:53:01;99855.13;;;22.20;46.18
49055;BME280;35405;52.344;14.530;2023-07-02T07:55:27;99865.13;;;22.05;46.17
49055;BME280;35405;52.344;14.530;2023-07-02T07:57:52;99869.41;;;22.19;46.58
49055;BME280;35405;52.344;14.530;2023-07-02T08:00:17;99865.75;;;22.42;46.58
49055;BME280;35405;52.344;14.530;2023-07-02T08:02:46;99873.91;;;22.62;46.20
49055;BME280;35405;52.344;14.530;2023-07-02T08:05:14;99853.28;;;22.75;45.82
49055;BME280;35405;52.344;14.530;2023-07-02T08:07:39;99859.09;;;22.80;44.87
49055;BME280;35405;52.344;14.530;2023-07-02T08:10:07;99863.84;;;22.77;44.28
49055;BME280;35405;52.344;14.530;2023-07-02T08:12:33;99861.38;;;23.17;44.07
49055;BME280;35405;52.344;14.530;2023-07-02T08:14:58;99858.38;;;23.31;42.92
49055;BME280;35405;52.344;14.530;2023-07-02T08:17:24;99849.00;;;23.57;42.68
49055;BME280;35405;52.344;14.530;2023-07-02T08:19:49;99843.34;;;23.51;41.89
49055;BME280;35405;52.344;14.530;2023-07-02T08:22:14;99853.22;;;23.60;41.39
49055;BME280;35405;52.344;14.530;2023-07-02T08:24:39;99869.19;;;23.29;42.06
49055;BME280;35405;52.344;14.530;2023-07-02T08:27:04;99872.53;;;22.90;42.47
49055;BME280;35405;52.344;14.530;2023-07-02T08:29:30;99866.66;;;22.64;42.69
49055;BME280;35405;52.344;14.530;2023-07-02T08:31:55;99868.25;;;22.55;42.93
49055;BME280;35405;52.344;14.530;2023-07-02T08:34:21;99862.81;;;22.57;42.66
49055;BME280;35405;52.344;14.530;2023-07-02T08:36:46;99869.44;;;23.06;42.10
49055;BME280;35405;52.344;14.530;2023-07-02T08:39:11;99861.03;;;23.73;41.10
49055;BME280;35405;52.344;14.530;2023-07-02T08:41:43;99863.44;;;24.37;40.25
49055;BME280;35405;52.344;14.530;2023-07-02T08:44:09;99871.53;;;24.26;38.46
49055;BME280;35405;52.344;14.530;2023-07-02T08:46:35;99861.06;;;24.03;38.05
49055;BME280;35405;52.344;14.530;2023-07-02T08:49:01;99879.22;;;23.37;38.96
49055;BME280;35405;52.344;14.530;2023-07-02T08:51:26;99879.91;;;23.18;39.51
49055;BME280;35405;52.344;14.530;2023-07-02T08:53:51;99885.00;;;23.00;39.66
49055;BME280;35405;52.344;14.530;2023-07-02T08:56:16;99888.03;;;22.96;39.96
49055;BME280;35405;52.344;14.530;2023-07-02T08:58:41;99892.00;;;23.34;40.22
49055;BME280;35405;52.344;14.530;2023-07-02T09:01:07;99901.06;;;23.63;39.82
49055;BME280;35405;52.344;14.530;2023-07-02T09:03:33;99906.75;;;23.70;39.85
49055;BME280;35405;52.344;14.530;2023-07-02T09:05:58;99899.16;;;23.75;40.26
49055;BME280;35405;52.344;14.530;2023-07-02T09:08:24;99909.09;;;23.63;39.57
49055;BME280;35405;52.344;14.530;2023-07-02T09:10:49;99901.69;;;23.35;39.58
49055;BME280;35405;52.344;14.530;2023-07-02T09:13:15;99910.72;;;23.22;39.84
49055;BME280;35405;52.344;14.530;2023-07-02T09:15:41;99907.53;;;23.08;40.68
49055;BME280;35405;52.344;14.530;2023-07-02T09:20:41;99914.00;;;22.94;41.47
49055;BME280;35405;52.344;14.530;2023-07-02T09:23:07;99914.34;;;23.00;42.10
49055;BME280;35405;52.344;14.530;2023-07-02T09:25:39;99921.13;;;23.05;41.81
49055;BME280;35405;52.344;14.530;2023-07-02T09:28:17;99925.06;;;22.78;42.16
49055;BME280;35405;52.344;14.530;2023-07-02T09:30:56;99931.47;;;22.75;42.73
49055;BME280;35405;52.344;14.530;2023-07-02T09:33:23;99922.59;;;22.97;42.51
49055;BME280;35405;52.344;14.530;2023-07-02T09:35:48;99930.75;;;23.17;42.34
49055;BME280;35405;52.344;14.530;2023-07-02T09:38:13;99931.50;;;23.19;42.54
49055;BME280;35405;52.344;14.530;2023-07-02T09:40:47;99937.50;;;23.00;42.78
49055;BME280;35405;52.344;14.530;2023-07-02T09:43:14;99928.91;;;22.85;43.18
49055;BME280;35405;52.344;14.530;2023-07-02T09:45:44;99930.41;;;22.67;43.25
49055;BME280;35405;52.344;14.530;2023-07-02T09:48:11;99930.81;;;22.51;43.57
49055;BME280;35405;52.344;14.530;2023-07-02T09:50:37;99937.00;;;22.18;44.05
49055;BME280;35405;52.344;14.530;2023-07-02T09:53:03;99940.81;;;21.91;44.61
49055;BME280;35405;52.344;14.530;2023-07-02T09:55:28;99935.63;;;22.01;45.00
49055;BME280;35405;52.344;14.530;2023-07-02T09:57:54;99945.72;;;22.42;44.48
49055;BME280;35405;52.344;14.530;2023-07-02T10:00:19;99949.69;;;22.70;43.88
49055;BME280;35405;52.344;14.530;2023-07-02T10:02:50;99951.50;;;22.70;43.57
49055;BME280;35405;52.344;14.530;2023-07-02T10:08:13;99953.28;;;21.91;44.93
49055;BME280;35405;52.344;14.530;2023-07-02T10:10:39;99954.34;;;21.66;46.35
49055;BME280;35405;52.344;14.530;2023-07-02T10:13:04;99965.19;;;21.63;46.80
49055;BME280;35405;52.344;14.530;2023-07-02T10:15:30;99963.97;;;21.45;47.64
49055;BME280;35405;52.344;14.530;2023-07-02T10:17:56;99968.72;;;21.28;48.38
49055;BME280;35405;52.344;14.530;2023-07-02T10:20:38;99965.44;;;21.01;47.74
49055;BME280;35405;52.344;14.530;2023-07-02T10:23:05;99970.56;;;20.91;47.34
49055;BME280;35405;52.344;14.530;2023-07-02T10:25:34;99964.75;;;21.10;46.96
49055;BME280;35405;52.344;14.530;2023-07-02T10:28:00;99969.81;;;21.13;45.97
49055;BME280;35405;52.344;14.530;2023-07-02T10:30:36;99960.22;;;21.23;45.58
49055;BME280;35405;52.344;14.530;2023-07-02T10:33:08;99956.22;;;21.53;44.43
49055;BME280;35405;52.344;14.530;2023-07-02T10:35:37;99961.41;;;21.78;43.40
49055;BME280;35405;52.344;14.530;2023-07-02T10:38:02;99961.06;;;21.94;42.95
49055;BME280;35405;52.344;14.530;2023-07-02T10:40:27;99960.59;;;22.00;43.07
49055;BME280;35405;52.344;14.530;2023-07-02T10:42:52;99959.22;;;22.06;42.75
49055;BME280;35405;52.344;14.530;2023-07-02T10:45:18;99958.69;;;22.36;43.10
49055;BME280;35405;52.344;14.530;2023-07-02T10:47:44;99952.91;;;22.85;42.55
49055;BME280;35405;52.344;14.530;2023-07-02T10:50:19;99953.16;;;23.05;42.38
49055;BME280;35405;52.344;14.530;2023-07-02T10:52:45;99952.75;;;23.09;42.58
49055;BME280;35405;52.344;14.530;2023-07-02T10:55:15;99957.44;;;23.17;42.65
49055;BME280;35405;52.344;14.530;2023-07-02T10:57:40;99956.59;;;23.16;42.55
49055;BME280;35405;52.344;14.530;2023-07-02T11:00:06;99965.00;;;23.12;41.32
49055;BME280;35405;52.344;14.530;2023-07-02T11:02:38;99967.91;;;23.09;42.10
49055;BME280;35405;52.344;14.530;2023-07-02T11:05:04;99967.19;;;23.39;41.75
49055;BME280;35405;52.344;14.530;2023-07-02T11:07:31;99965.28;;;23.29;41.70
49055;BME280;35405;52.344;14.530;2023-07-02T11:09:56;99965.16;;;22.99;41.94
49055;BME280;35405;52.344;14.530;2023-07-02T11:12:29;99966.22;;;23.08;41.95
49055;BME280;35405;52.344;14.530;2023-07-02T11:14:54;99959.44;;;23.36;41.29
49055;BME280;35405;52.344;14.530;2023-07-02T11:17:24;99970.81;;;23.49;40.97
49055;BME280;35405;52.344;14.530;2023-07-02T11:19:50;99962.28;;;23.55;40.85
49055;BME280;35405;52.344;14.530;2023-07-02T11:22:15;99965.63;;;23.36;40.04
49055;BME280;35405;52.344;14.530;2023-07-02T11:24:40;99955.72;;;23.27;40.06
49055;BME280;35405;52.344;14.530;2023-07-02T11:27:06;99953.59;;;23.10;40.68
49055;BME280;35405;52.344;14.530;2023-07-02T11:29:31;99953.03;;;23.06;40.38
49055;BME280;35405;52.344;14.530;2023-07-02T11:34:31;99959.84;;;22.99;40.11
49055;BME280;35405;52.344;14.530;2023-07-02T11:36:56;99945.75;;;22.97;40.00
49055;BME280;35405;52.344;14.530;2023-07-02T11:39:22;99950.59;;;23.03;39.12
49055;BME280;35405;52.344;14.530;2023-07-02T11:41:47;99957.94;;;23.22;39.19
49055;BME280;35405;52.344;14.530;2023-07-02T11:44:13;99950.44;;;23.16;39.64
49055;BME280;35405;52.344;14.530;2023-07-02T11:46:38;99962.59;;;23.09;40.10
49055;BME280;35405;52.344;14.530;2023-07-02T11:49:04;99957.38;;;23.07;40.71
49055;BME280;35405;52.344;14.530;2023-07-02T11:51:30;99944.19;;;22.83;40.92
49055;BME280;35405;52.344;14.530;2023-07-02T11:53:55;99969.34;;;22.69;41.31
49055;BME280;35405;52.344;14.530;2023-07-02T11:56:20;99965.50;;;22.83;41.42
49055;BME280;35405;52.344;14.530;2023-07-02T11:58:45;99963.25;;;22.79;40.78
49055;BME280;35405;52.344;14.530;2023-07-02T12:01:10;99960.94;;;22.74;41.20
49055;BME280;35405;52.344;14.530;2023-07-02T12:03:36;99965.47;;;23.17;41.71
49055;BME280;35405;52.344;14.530;2023-07-02T12:06:01;99952.97;;;23.49;40.26
49055;BME280;35405;52.344;14.530;2023-07-02T12:08:26;99937.00;;;23.59;40.37
49055;BME280;35405;52.344;14.530;2023-07-02T12:10:51;99943.47;;;23.24;40.90
49055;BME280;35405;52.344;14.530;2023-07-02T12:13:17;99947.56;;;23.08;41.21
49055;BME280;35405;52.344;14.530;2023-07-02T12:15:42;99944.84;;;23.40;40.55
49055;BME280;35405;52.344;14.530;2023-07-02T12:18:08;99936.16;;;23.58;40.18
49055;BME280;35405;52.344;14.530;2023-07-02T12:20:33;99940.63;;;23.58;40.31
49055;BME280;35405;52.344;14.530;2023-07-02T12:22:58;99938.06;;;23.68;39.96
49055;BME280;35405;52.344;14.530;2023-07-02T12:25:23;99940.50;;;24.01;40.16
49055;BME280;35405;52.344;14.530;2023-07-02T12:27:49;99928.22;;;24.20;40.12
49055;BME280;35405;52.344;14.530;2023-07-02T12:30:14;99948.16;;;24.16;40.22
49055;BME280;35405;52.344;14.530;2023-07-02T12:32:43;99939.94;;;23.98;40.27
49055;BME280;35405;52.344;14.530;2023-07-02T12:35:09;99944.66;;;23.64;40.42
49055;BME280;35405;52.344;14.530;2023-07-02T12:37:34;99947.41;;;23.41;40.54
49055;BME280;35405;52.344;14.530;2023-07-02T12:39:59;99944.84;;;23.19;39.96
49055;BME280;35405;52.344;14.530;2023-07-02T12:42:25;99950.25;;;22.96;40.70
49055;BME280;35405;52.344;14.530;2023-07-02T12:44:50;99952.91;;;22.96;40.71
49055;BME280;35405;52.344;14.530;2023-07-02T12:47:15;99955.47;;;23.30;40.50
49055;BME280;35405;52.344;14.530;2023-07-02T12:49:41;99951.84;;;23.52;39.98
49055;BME280;35405;52.344;14.530;2023-07-02T12:52:06;99938.19;;;23.66;39.87
49055;BME280;35405;52.344;14.530;2023-07-02T12:54:31;99945.03;;;23.80;39.25
49055;BME280;35405;52.344;14.530;2023-07-02T12:56:56;99954.13;;;23.56;39.11
49055;BME280;35405;52.344;14.530;2023-07-02T12:59:21;99956.47;;;23.50;38.88
49055;BME280;35405;52.344;14.530;2023-07-02T13:01:47;99954.13;;;23.36;38.20
49055;BME280;35405;52.344;14.530;2023-07-02T13:04:12;99958.19;;;23.40;37.95
49055;BME280;35405;52.344;14.530;2023-07-02T13:06:39;99938.63;;;23.50;36.86
49055;BME280;35405;52.344;14.530;2023-07-02T13:09:05;99947.47;;;23.62;35.62
49055;BME280;35405;52.344;14.530;2023-07-02T13:11:31;99949.19;;;23.73;35.19
49055;BME280;35405;52.344;14.530;2023-07-02T13:13:56;99946.59;;;24.03;35.19
49055;BME280;35405;52.344;14.530;2023-07-02T13:16:22;99952.13;;;24.42;33.69
49055;BME280;35405;52.344;14.530;2023-07-02T13:18:48;99953.03;;;24.72;33.62
49055;BME280;35405;52.344;14.530;2023-07-02T13:21:14;99954.22;;;24.88;32.84
49055;BME280;35405;52.344;14.530;2023-07-02T13:23:39;99953.00;;;25.12;32.48
49055;BME280;35405;52.344;14.530;2023-07-02T13:26:04;99960.19;;;25.50;31.76
49055;BME280;35405;52.344;14.530;2023-07-02T13:28:29;99952.03;;;25.42;30.46
49055;BME280;35405;52.344;14.530;2023-07-02T13:30:54;99958.31;;;25.99;28.92
49055;BME280;35405;52.344;14.530;2023-07-02T13:33:20;99958.09;;;25.25;28.67
49055;BME280;35405;52.344;14.530;2023-07-02T13:35:45;99962.97;;;24.90;28.68
49055;BME280;35405;52.344;14.530;2023-07-02T13:38:10;99973.44;;;25.23;28.14
49055;BME280;35405;52.344;14.530;2023-07-02T13:40:36;99980.28;;;26.59;26.82
49055;BME280;35405;52.344;14.530;2023-07-02T13:43:01;99976.91;;;26.57;26.81
49055;BME280;35405;52.344;14.530;2023-07-02T13:45:28;99971.19;;;27.51;25.64
49055;BME280;35405;52.344;14.530;2023-07-02T13:47:53;99963.13;;;27.51;25.45
49055;BME280;35405;52.344;14.530;2023-07-02T13:50:18;99969.53;;;27.14;25.94
49055;BME280;35405;52.344;14.530;2023-07-02T13:52:43;99974.00;;;26.68;26.94
49055;BME280;35405;52.344;14.530;2023-07-02T13:55:11;99968.38;;;26.62;26.67
49055;BME280;35405;52.344;14.530;2023-07-02T13:57:36;99979.03;;;26.53;26.73
49055;BME280;35405;52.344;14.530;2023-07-02T14:00:01;99973.38;;;26.10;26.87
49055;BME280;35405;52.344;14.530;2023-07-02T14:02:27;99972.19;;;25.75;27.18
49055;BME280;35405;52.344;14.530;2023-07-02T14:04:52;99968.34;;;25.58;28.07
49055;BME280;35405;52.344;14.530;2023-07-02T14:07:17;99974.84;;;25.56;28.40
49055;BME280;35405;52.344;14.530;2023-07-02T14:09:42;99982.03;;;25.94;28.38
49055;BME280;35405;52.344;14.530;2023-07-02T14:12:08;99972.28;;;25.93;28.03
49055;BME280;35405;52.344;14.530;2023-07-02T14:14:33;99985.84;;;25.72;27.94
49055;BME280;35405;52.344;14.530;2023-07-02T14:16:58;99996.69;;;25.70;27.70
49055;BME280;35405;52.344;14.530;2023-07-02T14:19:23;99980.38;;;25.44;27.85
49055;BME280;35405;52.344;14.530;2023-07-02T14:21:48;99987.25;;;25.18;28.20
49055;BME280;35405;52.344;14.530;2023-07-02T14:24:14;99996.53;;;25.04;28.19
49055;BME280;35405;52.344;14.530;2023-07-02T14:26:39;99993.53;;;24.98;28.85
49055;BME280;35405;52.344;14.530;2023-07-02T14:29:05;99992.03;;;25.05;28.71
49055;BME280;35405;52.344;14.530;2023-07-02T14:31:30;99982.53;;;24.91;27.72
49055;BME280;35405;52.344;14.530;2023-07-02T14:33:55;99995.84;;;24.72;28.29
49055;BME280;35405;52.344;14.530;2023-07-02T14:36:20;99997.50;;;24.53;27.85
49055;BME280;35405;52.344;14.530;2023-07-02T14:38:47;99998.97;;;24.67;28.02
49055;BME280;35405;52.344;14.530;2023-07-02T14:41:12;99994.75;;;24.74;28.21
49055;BME280;35405;52.344;14.530;2023-07-02T14:43:37;99997.09;;;25.08;28.34
49055;BME280;35405;52.344;14.530;2023-07-02T14:46:03;99994.88;;;25.32;28.33
49055;BME280;35405;52.344;14.530;2023-07-02T14:48:28;100000.09;;;25.43;28.11
49055;BME280;35405;52.344;14.530;2023-07-02T14:50:55;99998.00;;;25.66;28.04
49055;BME280;35405;52.344;14.530;2023-07-02T14:53:20;99982.88;;;25.56;28.27
49055;BME280;35405;52.344;14.530;2023-07-02T14:55:46;100001.38;;;25.68;28.18
49055;BME280;35405;52.344;14.530;2023-07-02T14:58:12;100004.06;;;25.78;28.35
49055;BME280;35405;52.344;14.530;2023-07-02T15:00:50;100007.47;;;25.80;27.85
49055;BME280;35405;52.344;14.530;2023-07-02T15:03:15;100007.84;;;25.56;27.96
49055;BME280;35405;52.344;14.530;2023-07-02T15:05:41;100009.69;;;25.27;27.56
49055;BME280;35405;52.344;14.530;2023-07-02T15:08:06;100010.47;;;25.08;27.84
49055;BME280;35405;52.344;14.530;2023-07-02T15:10:32;100005.78;;;25.00;28.04
49055;BME280;35405;52.344;14.530;2023-07-02T15:12:57;100006.78;;;24.99;28.49
49055;BME280;35405;52.344;14.530;2023-07-02T15:15:23;100016.25;;;25.03;28.29
49055;BME280;35405;52.344;14.530;2023-07-02T15:17:48;100011.22;;;24.79;27.97
49055;BME280;35405;52.344;14.530;2023-07-02T15:20:13;100025.13;;;24.63;28.05
49055;BME280;35405;52.344;14.530;2023-07-02T15:22:38;100004.88;;;24.71;28.02
49055;BME280;35405;52.344;14.530;2023-07-02T15:25:04;100018.63;;;24.66;27.94
49055;BME280;35405;52.344;14.530;2023-07-02T15:27:30;100023.50;;;24.82;27.89
49055;BME280;35405;52.344;14.530;2023-07-02T15:29:55;100021.22;;;24.68;27.88
49055;BME280;35405;52.344;14.530;2023-07-02T15:32:20;100028.03;;;24.51;28.50
49055;BME280;35405;52.344;14.530;2023-07-02T15:34:45;100041.66;;;24.48;28.88
49055;BME280;35405;52.344;14.530;2023-07-02T15:37:11;100032.16;;;24.34;28.60
49055;BME280;35405;52.344;14.530;2023-07-02T15:39:36;100032.34;;;24.42;28.27
49055;BME280;35405;52.344;14.530;2023-07-02T15:42:01;100021.13;;;24.48;28.17
49055;BME280;35405;52.344;14.530;2023-07-02T15:44:27;100034.75;;;24.24;28.30
49055;BME280;35405;52.344;14.530;2023-07-02T15:46:52;100040.75;;;23.96;28.82
49055;BME280;35405;52.344;14.530;2023-07-02T15:49:17;100032.53;;;23.88;29.19
49055;BME280;35405;52.344;14.530;2023-07-02T15:51:42;100041.03;;;23.93;29.20
49055;BME280;35405;52.344;14.530;2023-07-02T15:54:07;100045.38;;;24.15;29.05
49055;BME280;35405;52.344;14.530;2023-07-02T15:56:33;100048.72;;;24.28;28.90
49055;BME280;35405;52.344;14.530;2023-07-02T15:58:59;100034.00;;;24.33;29.25
49055;BME280;35405;52.344;14.530;2023-07-02T16:01:24;100049.00;;;24.04;29.27
49055;BME280;35405;52.344;14.530;2023-07-02T16:03:50;100056.53;;;23.99;29.67
49055;BME280;35405;52.344;14.530;2023-07-02T16:06:15;100045.84;;;23.99;29.95
49055;BME280;35405;52.344;14.530;2023-07-02T16:08:41;100054.44;;;24.02;30.09
49055;BME280;35405;52.344;14.530;2023-07-02T16:11:07;100052.88;;;24.21;29.45
49055;BME280;35405;52.344;14.530;2023-07-02T16:13:34;100056.44;;;24.31;29.32
49055;BME280;35405;52.344;14.530;2023-07-02T16:16:02;100052.38;;;24.27;29.82
49055;BME280;35405;52.344;14.530;2023-07-02T16:18:28;100055.75;;;24.08;30.01
49055;BME280;35405;52.344;14.530;2023-07-02T16:20:54;100052.63;;;24.03;29.56
49055;BME280;35405;52.344;14.530;2023-07-02T16:23:19;100046.22;;;23.73;29.47
49055;BME280;35405;52.344;14.530;2023-07-02T16:25:51;100034.97;;;23.58;28.63
49055;BME280;35405;52.344;14.530;2023-07-02T16:28:17;100052.94;;;23.56;28.82
49055;BME280;35405;52.344;14.530;2023-07-02T16:30:42;100052.06;;;23.67;28.54
49055;BME280;35405;52.344;14.530;2023-07-02T16:33:07;100048.81;;;23.64;28.56
49055;BME280;35405;52.344;14.530;2023-07-02T16:35:32;100053.72;;;23.47;28.59
49055;BME280;35405;52.344;14.530;2023-07-02T16:37:57;100049.28;;;23.57;28.68
49055;BME280;35405;52.344;14.530;2023-07-02T16:40:23;100070.94;;;23.54;28.79
49055;BME280;35405;52.344;14.530;2023-07-02T16:42:48;100061.25;;;23.31;29.14
49055;BME280;35405;52.344;14.530;2023-07-02T16:45:13;100060.56;;;23.18;29.42
49055;BME280;35405;52.344;14.530;2023-07-02T16:47:38;100063.72;;;23.23;29.44
49055;BME280;35405;52.344;14.530;2023-07-02T16:50:04;100060.06;;;23.35;28.92
49055;BME280;35405;52.344;14.530;2023-07-02T16:52:29;100071.22;;;23.40;28.88
49055;BME280;35405;52.344;14.530;2023-07-02T16:54:54;100060.81;;;23.26;29.07
49055;BME280;35405;52.344;14.530;2023-07-02T16:57:19;100061.25;;;23.31;28.88
49055;BME280;35405;52.344;14.530;2023-07-02T16:59:45;100054.38;;;23.28;28.56
49055;BME280;35405;52.344;14.530;2023-07-02T17:02:10;100054.84;;;23.34;28.74
49055;BME280;35405;52.344;14.530;2023-07-02T17:04:35;100062.28;;;23.19;29.00
49055;BME280;35405;52.344;14.530;2023-07-02T17:07:00;100079.78;;;23.12;29.54
49055;BME280;35405;52.344;14.530;2023-07-02T17:09:27;100067.41;;;22.99;29.71
49055;BME280;35405;52.344;14.530;2023-07-02T17:11:58;100083.66;;;22.96;28.90
49055;BME280;35405;52.344;14.530;2023-07-02T17:14:24;100081.84;;;22.86;28.79
49055;BME280;35405;52.344;14.530;2023-07-02T17:16:50;100081.94;;;22.73;28.70
49055;BME280;35405;52.344;14.530;2023-07-02T17:21:46;100090.53;;;22.65;28.48
49055;BME280;35405;52.344;14.530;2023-07-02T17:24:15;100094.78;;;22.68;29.01
49055;BME280;35405;52.344;14.530;2023-07-02T17:26:40;100085.56;;;22.61;29.00
49055;BME280;35405;52.344;14.530;2023-07-02T17:29:05;100091.75;;;22.61;29.42
49055;BME280;35405;52.344;14.530;2023-07-02T17:31:31;100092.72;;;22.71;29.83
49055;BME280;35405;52.344;14.530;2023-07-02T17:33:56;100100.59;;;22.73;29.55
49055;BME280;35405;52.344;14.530;2023-07-02T17:36:21;100097.47;;;22.79;29.49
49055;BME280;35405;52.344;14.530;2023-07-02T17:38:46;100093.22;;;22.77;29.97
49055;BME280;35405;52.344;14.530;2023-07-02T17:41:11;100096.47;;;22.69;30.25
49055;BME280;35405;52.344;14.530;2023-07-02T17:43:37;100103.25;;;22.62;30.35
49055;BME280;35405;52.344;14.530;2023-07-02T17:46:02;100099.63;;;22.52;30.49
49055;BME280;35405;52.344;14.530;2023-07-02T17:48:27;100101.41;;;22.29;31.22
49055;BME280;35405;52.344;14.530;2023-07-02T17:50:56;100103.44;;;22.25;31.12
49055;BME280;35405;52.344;14.530;2023-07-02T17:53:22;100105.84;;;22.17;30.68
49055;BME280;35405;52.344;14.530;2023-07-02T17:55:47;100102.63;;;22.01;30.94
49055;BME280;35405;52.344;14.530;2023-07-02T17:58:13;100106.13;;;22.01;31.04
49055;BME280;35405;52.344;14.530;2023-07-02T18:00:38;100102.81;;;21.86;31.24
49055;BME280;35405;52.344;14.530;2023-07-02T18:03:03;100117.56;;;21.79;31.53
49055;BME280;35405;52.344;14.530;2023-07-02T18:05:28;100112.16;;;21.68;32.12
49055;BME280;35405;52.344;14.530;2023-07-02T18:07:54;100117.16;;;21.73;31.84
49055;BME280;35405;52.344;14.530;2023-07-02T18:10:19;100123.66;;;21.69;32.14
49055;BME280;35405;52.344;14.530;2023-07-02T18:12:44;100121.34;;;21.64;32.28
49055;BME280;35405;52.344;14.530;2023-07-02T18:15:09;100114.66;;;21.58;32.45
49055;BME280;35405;52.344;14.530;2023-07-02T18:17:34;100122.41;;;21.37;32.96
49055;BME280;35405;52.344;14.530;2023-07-02T18:20:00;100119.00;;;21.35;32.61
49055;BME280;35405;52.344;14.530;2023-07-02T18:22:25;100125.50;;;21.31;32.75
49055;BME280;35405;52.344;14.530;2023-07-02T18:24:50;100117.19;;;21.23;33.18
49055;BME280;35405;52.344;14.530;2023-07-02T18:27:16;100127.19;;;21.20;33.10
49055;BME280;35405;52.344;14.530;2023-07-02T18:29:41;100133.81;;;21.14;33.11
49055;BME280;35405;52.344;14.530;2023-07-02T18:32:07;100130.75;;;21.07;33.67
49055;BME280;35405;52.344;14.530;2023-07-02T18:34:33;100134.16;;;20.97;33.89
49055;BME280;35405;52.344;14.530;2023-07-02T18:36:59;100129.69;;;20.84;34.00
49055;BME280;35405;52.344;14.530;2023-07-02T18:39:26;100129.19;;;20.79;34.48
49055;BME280;35405;52.344;14.530;2023-07-02T18:41:56;100130.34;;;20.75;34.73
49055;BME280;35405;52.344;14.530;2023-07-02T18:44:21;100134.81;;;20.75;34.71
49055;BME280;35405;52.344;14.530;2023-07-02T18:46:46;100141.72;;;20.65;34.83
49055;BME280;35405;52.344;14.530;2023-07-02T18:49:13;100141.31;;;20.58;34.74
49055;BME280;35405;52.344;14.530;2023-07-02T18:51:39;100140.91;;;20.51;35.30
49055;BME280;35405;52.344;14.530;2023-07-02T18:54:05;100149.06;;;20.48;34.90
49055;BME280;35405;52.344;14.530;2023-07-02T18:56:30;100147.34;;;20.47;35.11
49055;BME280;35405;52.344;14.530;2023-07-02T18:58:56;100144.22;;;20.41;35.56
49055;BME280;35405;52.344;14.530;2023-07-02T19:01:21;100145.84;;;20.30;35.77
49055;BME280;35405;52.344;14.530;2023-07-02T19:03:46;100144.44;;;20.25;35.82
49055;BME280;35405;52.344;14.530;2023-07-02T19:06:12;100155.16;;;20.23;36.13
49055;BME280;35405;52.344;14.530;2023-07-02T19:08:37;100152.38;;;20.12;36.23
49055;BME280;35405;52.344;14.530;2023-07-02T19:11:04;100152.78;;;20.06;36.39
49055;BME280;35405;52.344;14.530;2023-07-02T19:13:30;100161.91;;;20.02;36.50
49055;BME280;35405;52.344;14.530;2023-07-02T19:15:55;100157.09;;;19.94;37.08
49055;BME280;35405;52.344;14.530;2023-07-02T19:18:20;100158.53;;;19.86;37.31
49055;BME280;35405;52.344;14.530;2023-07-02T19:20:46;100163.22;;;19.82;37.13